createdAt,value
2023-03-20T00:00:17.850Z,23.44
2023-03-20T00:01:17.835Z,23.34
2023-03-20T00:02:17.850Z,23.85
2023-03-20T00:03:17.815Z,24.16
2023-03-20T00:04:17.839Z,24.05
2023-03-20T00:05:17.801Z,24.46
2023-03-20T00:06:17.796Z,25.29
2023-03-20T00:07:17.781Z,24.46
2023-03-20T00:08:17.757Z,24.87
2023-03-20T00:09:17.770Z,24.77
2023-03-20T00:10:17.738Z,25.29
2023-03-20T00:11:17.725Z,24.57
2023-03-20T00:12:17.717Z,24.16
2023-03-20T00:13:17.703Z,23.44
2023-03-20T00:14:17.691Z,23.13
2023-03-20T00:15:17.678Z,23.43
2023-03-20T00:16:17.679Z,24.16
2023-03-20T00:17:17.658Z,24.26
2023-03-20T00:18:17.671Z,23.95
2023-03-20T00:19:17.633Z,23.65
2023-03-20T00:20:17.636Z,22.92
2023-03-20T00:21:17.610Z,23.34
2023-03-20T00:22:17.635Z,23.43
2023-03-20T00:23:17.600Z,23.44
2023-03-20T00:24:17.579Z,23.54
2023-03-20T00:25:17.566Z,22.83
2023-03-20T00:26:17.558Z,22.00
2023-03-20T00:27:17.546Z,22.81
2023-03-20T00:28:17.535Z,23.54
2023-03-20T00:29:17.527Z,22.62
2023-03-20T00:30:17.508Z,21.59
2023-03-20T00:31:17.610Z,22.72
2023-03-20T00:32:17.491Z,21.91
2023-03-20T00:33:17.478Z,21.39
2023-03-20T00:34:17.487Z,22.83
2023-03-20T00:35:17.461Z,21.39
2023-03-20T00:36:17.445Z,23.65
2023-03-20T00:37:17.437Z,23.95
2023-03-20T00:38:17.422Z,23.54
2023-03-20T00:39:17.424Z,22.42
2023-03-20T00:40:17.399Z,22.62
2023-03-20T00:41:17.388Z,22.31
2023-03-20T00:42:17.376Z,23.13
2023-03-20T00:43:17.365Z,22.62
2023-03-20T00:44:17.358Z,21.70
2023-03-20T00:45:17.343Z,19.76
2023-03-20T00:46:17.368Z,18.12
2023-03-20T00:47:17.325Z,16.99
2023-03-20T00:48:17.315Z,18.94
2023-03-20T00:49:17.296Z,18.73
2023-03-20T00:50:17.309Z,18.84
2023-03-20T00:51:17.278Z,19.14
2023-03-20T00:52:17.275Z,19.24
2023-03-20T00:53:17.250Z,21.19
2023-03-20T00:54:17.291Z,22.31
2023-03-20T00:55:17.233Z,24.16
2023-03-20T00:56:17.219Z,23.13
2023-03-20T00:57:17.208Z,23.44
2023-03-20T00:58:17.219Z,22.72
2023-03-20T00:59:17.186Z,20.98
2023-03-20T01:00:17.181Z,22.12
2023-03-20T01:01:17.281Z,22.53
2023-03-20T01:02:17.171Z,21.71
2023-03-20T01:03:17.142Z,19.56
2023-03-20T01:04:17.146Z,19.46
2023-03-20T01:05:17.163Z,17.41
2023-03-20T01:06:17.205Z,15.26
2023-03-20T01:07:17.226Z,13.52
2023-03-20T01:08:17.248Z,13.01
2023-03-20T01:09:17.225Z,12.29
2023-03-20T01:10:17.196Z,10.96
2023-03-20T01:11:17.097Z,9.22
2023-03-20T01:12:17.041Z,8.29
2023-03-20T01:13:17.025Z,7.37
2023-03-20T01:14:17.016Z,6.45
2023-03-20T01:15:17.004Z,6.56
2023-03-20T01:16:17.072Z,5.43
2023-03-20T01:17:16.986Z,3.48
2023-03-20T01:18:16.970Z,1.94
2023-03-20T01:19:17.021Z,2.76
2023-03-20T01:20:16.947Z,1.12
2023-03-20T01:21:16.936Z,0.00
2023-03-20T01:22:16.946Z,0.00
2023-03-20T01:23:16.937Z,0.00
2023-03-20T01:24:16.898Z,0.00
2023-03-20T01:25:16.891Z,0.00
2023-03-20T01:26:16.876Z,0.41
2023-03-20T01:27:16.886Z,0.00
2023-03-20T01:28:16.855Z,0.00
2023-03-20T01:29:16.848Z,0.00
2023-03-20T01:30:16.830Z,0.00
2023-03-20T01:31:16.871Z,0.00
2023-03-20T01:32:16.823Z,0.00
2023-03-20T01:33:16.823Z,0.00
2023-03-20T01:34:16.784Z,0.00
2023-03-20T01:35:16.795Z,0.00
2023-03-20T01:36:16.832Z,0.00
2023-03-20T01:37:16.755Z,0.00
2023-03-20T01:38:16.783Z,0.00
2023-03-20T01:39:16.731Z,0.00
2023-03-20T01:40:16.725Z,1.64
2023-03-20T01:41:16.754Z,0.61
2023-03-20T01:42:16.699Z,2.25
2023-03-20T01:43:16.705Z,5.43
2023-03-20T01:44:16.675Z,8.81
2023-03-20T01:45:16.672Z,12.40
2023-03-20T01:46:16.703Z,13.01
2023-03-20T01:47:16.643Z,13.53
2023-03-20T01:48:16.631Z,13.21
2023-03-20T01:49:16.621Z,10.55
2023-03-20T01:50:16.614Z,11.99
2023-03-20T01:51:16.598Z,11.99
2023-03-20T01:52:16.586Z,11.88
2023-03-20T01:53:16.584Z,11.89
2023-03-20T01:54:16.588Z,15.78
2023-03-20T01:55:16.551Z,13.94
2023-03-20T01:56:16.540Z,14.35
2023-03-20T01:57:16.538Z,13.94
2023-03-20T01:58:16.518Z,12.30
2023-03-20T01:59:16.512Z,13.12
2023-03-20T02:00:16.501Z,12.92
2023-03-20T02:01:16.501Z,12.40
2023-03-20T02:02:16.480Z,10.46
2023-03-20T02:03:16.465Z,11.27
2023-03-20T02:04:16.450Z,10.46
2023-03-20T02:05:16.440Z,9.94
2023-03-20T02:06:16.434Z,8.92
2023-03-20T02:07:16.419Z,8.30
2023-03-20T02:08:16.420Z,6.56
2023-03-20T02:09:16.396Z,8.09
2023-03-20T02:10:16.436Z,9.84
2023-03-20T02:11:16.375Z,8.10
2023-03-20T02:12:16.359Z,9.02
2023-03-20T02:13:16.360Z,9.74
2023-03-20T02:14:16.338Z,8.92
2023-03-20T02:15:16.327Z,8.40
2023-03-20T02:16:16.379Z,5.13
2023-03-20T02:17:16.308Z,3.49
2023-03-20T02:18:16.311Z,1.84
2023-03-20T02:19:16.285Z,1.54
2023-03-20T02:20:16.275Z,3.28
2023-03-20T02:21:16.258Z,3.79
2023-03-20T02:22:16.258Z,1.03
2023-03-20T02:23:16.248Z,2.25
2023-03-20T02:24:16.223Z,1.33
2023-03-20T02:25:16.219Z,1.33
2023-03-20T02:26:16.227Z,2.05
2023-03-20T02:27:16.201Z,2.05
2023-03-20T02:28:16.189Z,3.28
2023-03-20T02:29:16.167Z,3.08
2023-03-20T02:30:16.160Z,3.69
2023-03-20T02:31:16.220Z,3.59
2023-03-20T02:32:16.134Z,4.61
2023-03-20T02:33:16.132Z,3.79
2023-03-20T02:34:16.114Z,4.51
2023-03-20T02:35:16.108Z,3.17
2023-03-20T02:36:16.121Z,1.43
2023-03-20T02:37:16.118Z,4.10
2023-03-20T02:38:16.072Z,7.49
2023-03-20T02:39:16.055Z,8.72
2023-03-20T02:40:16.039Z,8.72
2023-03-20T02:41:16.082Z,7.59
2023-03-20T02:42:16.041Z,6.77
2023-03-20T02:43:16.018Z,7.48
2023-03-20T02:44:16.000Z,7.18
2023-03-20T02:45:15.989Z,8.11
2023-03-20T02:46:16.004Z,8.20
2023-03-20T02:47:15.963Z,8.31
2023-03-20T02:48:15.952Z,9.23
2023-03-20T02:49:15.939Z,10.05
2023-03-20T02:50:15.928Z,10.77
2023-03-20T02:51:15.918Z,13.03
2023-03-20T02:52:15.905Z,13.75
2023-03-20T02:53:15.894Z,14.87
2023-03-20T02:54:15.882Z,15.59
2023-03-20T02:55:15.880Z,17.65
2023-03-20T02:56:15.860Z,18.26
2023-03-20T02:57:15.849Z,18.67
2023-03-20T02:58:15.864Z,20.01
2023-03-20T02:59:15.826Z,23.70
2023-03-20T03:00:15.816Z,25.55
2023-03-20T03:01:15.839Z,25.34
2023-03-20T03:02:15.825Z,23.50
2023-03-20T03:03:15.787Z,22.16
2023-03-20T03:04:15.769Z,21.65
2023-03-20T03:05:15.761Z,21.95
2023-03-20T03:06:15.746Z,20.42
2023-03-20T03:07:15.736Z,19.38
2023-03-20T03:08:15.728Z,19.48
2023-03-20T03:09:17.742Z,22.88
2023-03-20T03:10:15.705Z,21.53
2023-03-20T03:11:15.727Z,24.93
2023-03-20T03:12:15.685Z,25.65
2023-03-20T03:13:15.674Z,22.37
2023-03-20T03:14:15.685Z,22.67
2023-03-20T03:15:15.644Z,24.52
2023-03-20T03:16:15.720Z,23.19
2023-03-20T03:17:15.623Z,22.16
2023-03-20T03:18:15.608Z,21.86
2023-03-20T03:19:15.601Z,22.06
2023-03-20T03:20:15.592Z,24.01
2023-03-20T03:21:15.580Z,25.14
2023-03-20T03:22:15.563Z,25.85
2023-03-20T03:23:15.555Z,25.24
2023-03-20T03:24:15.541Z,25.96
2023-03-20T03:25:15.533Z,25.45
2023-03-20T03:26:15.525Z,25.14
2023-03-20T03:27:15.515Z,24.63
2023-03-20T03:28:15.500Z,23.80
2023-03-20T03:29:15.487Z,24.21
2023-03-20T03:30:15.515Z,24.52
2023-03-20T03:31:15.539Z,24.52
2023-03-20T03:32:15.450Z,25.14
2023-03-20T03:33:15.562Z,24.73
2023-03-20T03:34:15.427Z,25.85
2023-03-20T03:35:15.417Z,25.85
2023-03-20T03:36:15.437Z,26.37
2023-03-20T03:37:15.410Z,26.57
2023-03-20T03:38:15.382Z,25.85
2023-03-20T03:39:15.383Z,26.37
2023-03-20T03:40:15.361Z,28.52
2023-03-20T03:41:15.361Z,28.73
2023-03-20T03:42:15.335Z,28.83
2023-03-20T03:43:15.335Z,29.24
2023-03-20T03:44:15.313Z,30.88
2023-03-20T03:45:15.310Z,29.75
2023-03-20T03:46:15.362Z,29.96
2023-03-20T03:47:15.284Z,29.03
2023-03-20T03:48:15.266Z,30.58
2023-03-20T03:49:15.267Z,30.58
2023-03-20T03:50:15.246Z,30.07
2023-03-20T03:51:15.241Z,31.29
2023-03-20T03:52:15.227Z,30.99
2023-03-20T03:53:15.220Z,30.68
2023-03-20T03:54:15.200Z,33.86
2023-03-20T03:55:15.196Z,35.09
2023-03-20T03:56:15.225Z,36.32
2023-03-20T03:57:15.167Z,35.71
2023-03-20T03:58:15.158Z,35.50
2023-03-20T03:59:15.146Z,36.22
2023-03-20T04:00:15.142Z,35.81
2023-03-20T04:01:15.124Z,35.71
2023-03-20T04:02:15.141Z,36.83
2023-03-20T04:03:15.112Z,36.94
2023-03-20T04:04:15.131Z,36.63
2023-03-20T04:05:15.091Z,37.04
2023-03-20T04:06:15.066Z,36.43
2023-03-20T04:07:15.056Z,36.32
2023-03-20T04:08:15.046Z,35.91
2023-03-20T04:09:15.039Z,36.02
2023-03-20T04:10:15.034Z,34.89
2023-03-20T04:11:15.011Z,34.99
2023-03-20T04:12:15.000Z,34.58
2023-03-20T04:13:14.990Z,35.60
2023-03-20T04:14:14.987Z,35.60
2023-03-20T04:15:14.970Z,35.19
2023-03-20T04:16:15.024Z,34.06
2023-03-20T04:17:14.944Z,35.50
2023-03-20T04:18:14.955Z,34.89
2023-03-20T04:19:14.931Z,34.06
2023-03-20T04:20:14.919Z,33.65
2023-03-20T04:21:14.897Z,33.25
2023-03-20T04:22:14.887Z,32.01
2023-03-20T04:23:14.875Z,32.53
2023-03-20T04:24:14.863Z,32.73
2023-03-20T04:25:14.853Z,30.99
2023-03-20T04:26:14.843Z,32.23
2023-03-20T04:27:14.837Z,32.32
2023-03-20T04:28:14.822Z,32.22
2023-03-20T04:29:14.808Z,32.73
2023-03-20T04:30:14.797Z,31.82
2023-03-20T04:31:14.850Z,31.62
2023-03-20T04:32:14.774Z,30.78
2023-03-20T04:33:14.782Z,31.21
2023-03-20T04:34:14.776Z,30.28
2023-03-20T04:35:14.743Z,30.38
2023-03-20T04:36:14.810Z,30.18
2023-03-20T04:37:14.726Z,29.46
2023-03-20T04:38:14.709Z,29.15
2023-03-20T04:39:14.714Z,28.23
2023-03-20T04:40:14.683Z,28.02
2023-03-20T04:41:14.677Z,28.95
2023-03-20T04:42:14.661Z,29.25
2023-03-20T04:43:14.661Z,29.57
2023-03-20T04:44:14.642Z,28.64
2023-03-20T04:45:14.628Z,28.33
2023-03-20T04:46:14.686Z,27.82
2023-03-20T04:47:14.608Z,26.07
2023-03-20T04:48:14.625Z,26.48
2023-03-20T04:49:14.582Z,26.28
2023-03-20T04:50:14.636Z,26.28
2023-03-20T04:51:14.587Z,26.59
2023-03-20T04:52:14.550Z,26.59
2023-03-20T04:53:14.539Z,27.51
2023-03-20T04:54:14.527Z,27.41
2023-03-20T04:55:14.523Z,26.79
2023-03-20T04:56:14.502Z,26.69
2023-03-20T04:57:14.491Z,26.07
2023-03-20T04:58:14.483Z,26.07
2023-03-20T04:59:14.469Z,23.50
2023-03-20T05:00:14.917Z,23.71
2023-03-20T05:01:14.529Z,23.50
2023-03-20T05:02:14.438Z,24.43
2023-03-20T05:03:14.429Z,24.33
2023-03-20T05:04:14.469Z,24.84
2023-03-20T05:05:14.406Z,23.30
2023-03-20T05:06:14.412Z,24.84
2023-03-20T05:07:14.383Z,24.74
2023-03-20T05:08:14.377Z,25.56
2023-03-20T05:09:14.357Z,26.79
2023-03-20T05:10:14.345Z,25.87
2023-03-20T05:11:14.339Z,26.18
2023-03-20T05:12:14.317Z,25.46
2023-03-20T05:13:14.306Z,26.28
2023-03-20T05:14:14.297Z,25.46
2023-03-20T05:15:14.290Z,26.18
2023-03-20T05:16:14.341Z,25.97
2023-03-20T05:17:14.265Z,25.46
2023-03-20T05:18:14.261Z,26.18
2023-03-20T05:19:14.240Z,25.97
2023-03-20T05:20:14.230Z,26.07
2023-03-20T05:21:14.216Z,25.46
2023-03-20T05:22:14.227Z,25.46
2023-03-20T05:23:14.199Z,25.15
2023-03-20T05:24:14.205Z,24.84
2023-03-20T05:25:14.172Z,24.84
2023-03-20T05:26:14.155Z,24.95
2023-03-20T05:27:14.145Z,23.20
2023-03-20T05:28:14.134Z,23.41
2023-03-20T05:29:14.129Z,24.33
2023-03-20T05:30:14.113Z,24.33
2023-03-20T05:31:14.163Z,24.33
2023-03-20T05:32:14.091Z,23.82
2023-03-20T05:33:14.267Z,23.30
2023-03-20T05:34:14.066Z,23.82
2023-03-20T05:35:14.055Z,23.82
2023-03-20T05:36:14.083Z,24.12
2023-03-20T05:37:14.031Z,23.30
2023-03-20T05:38:14.050Z,23.20
2023-03-20T05:39:14.011Z,23.10
2023-03-20T05:40:13.999Z,21.86
2023-03-20T05:41:13.984Z,22.07
2023-03-20T05:42:13.975Z,21.86
2023-03-20T05:43:13.975Z,22.17
2023-03-20T05:44:13.952Z,22.28
2023-03-20T05:45:13.939Z,23.10
2023-03-20T05:46:13.994Z,22.89
2023-03-20T05:47:13.917Z,22.38
2023-03-20T05:48:13.905Z,21.97
2023-03-20T05:49:13.896Z,21.66
2023-03-20T05:50:13.898Z,21.04
2023-03-20T05:51:13.872Z,21.86
2023-03-20T05:52:13.863Z,21.65
2023-03-20T05:53:13.858Z,22.58
2023-03-20T05:54:13.870Z,23.29
2023-03-20T05:55:13.829Z,23.41
2023-03-20T05:56:13.817Z,23.50
2023-03-20T05:57:13.806Z,25.45
2023-03-20T05:58:13.794Z,25.45
2023-03-20T05:59:13.781Z,25.34
2023-03-20T06:00:13.772Z,25.14
2023-03-20T06:01:13.760Z,25.24
2023-03-20T06:02:13.783Z,26.17
2023-03-20T06:03:13.770Z,26.57
2023-03-20T06:04:13.729Z,28.42
2023-03-20T06:05:13.721Z,29.96
2023-03-20T06:06:13.705Z,29.65
2023-03-20T06:07:13.704Z,30.78
2023-03-20T06:08:13.692Z,30.78
2023-03-20T06:09:13.674Z,34.38
2023-03-20T06:10:13.685Z,35.40
2023-03-20T06:11:13.650Z,35.30
2023-03-20T06:12:13.657Z,36.22
2023-03-20T06:13:13.626Z,37.15
2023-03-20T06:14:13.642Z,38.28
2023-03-20T06:15:13.606Z,38.37
2023-03-20T06:16:13.644Z,39.81
2023-03-20T06:17:13.585Z,40.43
2023-03-20T06:18:13.569Z,40.84
2023-03-20T06:19:13.559Z,40.12
2023-03-20T06:20:13.548Z,40.82
2023-03-20T06:21:13.541Z,42.48
2023-03-20T06:22:13.523Z,44.33
2023-03-20T06:23:13.518Z,46.58
2023-03-20T06:24:13.503Z,45.33
2023-03-20T06:25:13.516Z,47.69
2023-03-20T06:26:13.502Z,47.79
2023-03-20T06:27:13.500Z,48.00
2023-03-20T06:28:13.468Z,50.87
2023-03-20T06:29:13.461Z,49.64
2023-03-20T06:30:13.432Z,51.39
2023-03-20T06:31:13.455Z,50.67
2023-03-20T06:32:13.425Z,50.97
2023-03-20T06:33:13.456Z,52.92
2023-03-20T06:34:13.396Z,52.41
2023-03-20T06:35:13.372Z,53.33
2023-03-20T06:36:13.376Z,53.33
2023-03-20T06:37:13.350Z,53.74
2023-03-20T06:38:13.338Z,55.08
2023-03-20T06:39:13.336Z,54.25
2023-03-20T06:40:13.326Z,53.64
2023-03-20T06:41:18.901Z,54.25
2023-03-20T06:42:16.029Z,52.20
2023-03-20T06:43:13.280Z,53.12
2023-03-20T06:44:13.820Z,54.05
2023-03-20T06:45:13.337Z,54.05
2023-03-20T06:46:13.286Z,54.25
2023-03-20T06:47:13.250Z,54.87
2023-03-20T06:48:13.226Z,54.02
2023-03-20T06:49:13.213Z,55.56
2023-03-20T06:50:13.202Z,57.00
2023-03-20T06:51:13.189Z,57.82
2023-03-20T06:52:13.177Z,56.79
2023-03-20T06:53:13.168Z,56.79
2023-03-20T06:54:13.157Z,60.28
2023-03-20T06:55:13.146Z,62.43
2023-03-20T06:56:13.135Z,61.30
2023-03-20T06:57:15.203Z,64.89
2023-03-20T06:58:13.147Z,64.17
2023-03-20T06:59:13.100Z,64.56
2023-03-20T07:00:13.099Z,65.27
2023-03-20T07:01:13.076Z,66.02
2023-03-20T07:02:13.180Z,66.22
2023-03-20T07:03:13.055Z,65.51
2023-03-20T07:04:13.053Z,66.12
2023-03-20T07:05:13.068Z,65.81
2023-03-20T07:06:13.032Z,67.35
2023-03-20T07:07:13.014Z,67.66
2023-03-20T07:08:13.018Z,66.84
2023-03-20T07:09:12.996Z,66.63
2023-03-20T07:10:12.991Z,67.97
2023-03-20T07:11:12.998Z,68.68
2023-03-20T07:12:12.960Z,70.73
2023-03-20T07:13:12.964Z,69.61
2023-03-20T07:14:13.196Z,69.10
2023-03-20T07:15:13.221Z,69.92
2023-03-20T07:16:12.997Z,68.38
2023-03-20T07:17:12.903Z,71.25
2023-03-20T07:18:12.894Z,70.60
2023-03-20T07:19:12.880Z,69.57
2023-03-20T07:20:12.882Z,71.73
2023-03-20T07:21:12.860Z,71.73
2023-03-20T07:22:12.845Z,71.83
2023-03-20T07:23:12.835Z,71.52
2023-03-20T07:24:12.823Z,72.14
2023-03-20T07:25:12.810Z,72.96
2023-03-20T07:26:12.803Z,74.80
2023-03-20T07:27:12.875Z,74.60
2023-03-20T07:28:12.793Z,75.31
2023-03-20T07:29:12.766Z,75.73
2023-03-20T07:30:12.786Z,74.19
2023-03-20T07:31:12.764Z,75.62
2023-03-20T07:32:12.733Z,75.01
2023-03-20T07:33:12.826Z,76.65
2023-03-20T07:34:12.724Z,76.95
2023-03-20T07:35:12.701Z,75.62
2023-03-20T07:36:12.691Z,80.54
2023-03-20T07:37:12.685Z,79.00
2023-03-20T07:38:12.667Z,79.00
2023-03-20T07:39:12.654Z,81.67
2023-03-20T07:40:12.653Z,81.01
2023-03-20T07:41:12.693Z,82.28
2023-03-20T07:42:12.632Z,82.24
2023-03-20T07:43:12.810Z,81.32
2023-03-20T07:44:12.597Z,81.52
2023-03-20T07:45:12.585Z,83.58
2023-03-20T07:46:12.731Z,83.92
2023-03-20T07:47:12.559Z,84.33
2023-03-20T07:48:12.557Z,84.64
2023-03-20T07:49:12.539Z,84.74
2023-03-20T07:50:12.529Z,86.18
2023-03-20T07:51:12.535Z,84.33
2023-03-20T07:52:12.506Z,86.38
2023-03-20T07:53:12.490Z,86.38
2023-03-20T07:54:12.519Z,85.46
2023-03-20T07:55:12.481Z,85.36
2023-03-20T07:56:12.462Z,85.66
2023-03-20T07:57:12.455Z,88.74
2023-03-20T07:58:12.439Z,89.36
2023-03-20T07:59:12.424Z,87.51
2023-03-20T08:00:12.423Z,86.96
2023-03-20T08:01:12.401Z,88.23
2023-03-20T08:02:12.415Z,90.23
2023-03-20T08:03:12.528Z,89.83
2023-03-20T08:04:12.454Z,91.46
2023-03-20T08:05:12.365Z,91.05
2023-03-20T08:06:12.376Z,91.77
2023-03-20T08:07:12.346Z,90.75
2023-03-20T08:08:12.330Z,91.97
2023-03-20T08:09:12.311Z,92.28
2023-03-20T08:10:12.308Z,92.96
2023-03-20T08:11:12.311Z,93.06
2023-03-20T08:12:12.292Z,93.26
2023-03-20T08:13:12.384Z,95.10
2023-03-20T08:14:12.448Z,93.67
2023-03-20T08:15:12.250Z,95.00
2023-03-20T08:16:12.276Z,94.34
2023-03-20T08:17:15.536Z,96.33
2023-03-20T08:18:12.252Z,95.82
2023-03-20T08:19:12.265Z,97.56
2023-03-20T08:20:12.201Z,97.25
2023-03-20T08:21:12.202Z,96.19
2023-03-20T08:22:12.169Z,98.13
2023-03-20T08:23:12.158Z,97.92
2023-03-20T08:24:12.164Z,97.52
2023-03-20T08:25:12.146Z,98.85
2023-03-20T08:26:12.166Z,99.36
2023-03-20T08:27:12.118Z,99.99
2023-03-20T08:28:12.104Z,99.99
2023-03-20T08:29:12.091Z,99.99
2023-03-20T08:30:12.134Z,99.56
2023-03-20T08:31:12.105Z,99.66
2023-03-20T08:32:12.058Z,99.26
2023-03-20T08:33:12.074Z,99.99
2023-03-20T08:34:12.058Z,99.99
2023-03-20T08:35:25.792Z,99.87
2023-03-20T08:36:13.107Z,99.99
2023-03-20T08:37:12.004Z,99.46
2023-03-20T08:38:12.001Z,99.99
2023-03-20T08:39:12.059Z,99.99
2023-03-20T08:40:12.048Z,99.99
2023-03-20T08:41:12.093Z,99.99
2023-03-20T08:42:12.040Z,99.99
2023-03-20T08:43:12.101Z,99.99
2023-03-20T08:44:12.043Z,99.99
2023-03-20T08:45:12.076Z,99.99
2023-03-20T08:46:12.132Z,99.99
2023-03-20T08:47:12.167Z,99.99
2023-03-20T08:48:11.879Z,99.99
2023-03-20T08:49:11.869Z,99.99
2023-03-20T08:50:11.881Z,99.99
2023-03-20T08:51:11.852Z,99.99
2023-03-20T08:52:11.854Z,99.99
2023-03-20T08:53:11.821Z,99.99
2023-03-20T08:54:11.818Z,99.99
2023-03-20T08:55:11.799Z,99.99
2023-03-20T08:56:11.792Z,99.99
2023-03-20T08:57:11.781Z,99.99
2023-03-20T08:58:11.792Z,99.99
2023-03-20T08:59:11.761Z,99.99
2023-03-20T09:00:11.745Z,99.99
2023-03-20T09:01:11.796Z,99.99
2023-03-20T09:02:11.817Z,99.99
2023-03-20T09:03:11.764Z,99.99
2023-03-20T09:04:11.724Z,99.99
2023-03-20T09:05:11.700Z,99.99
2023-03-20T09:06:11.703Z,99.99
2023-03-20T09:07:11.666Z,99.99
2023-03-20T09:08:11.657Z,99.99
2023-03-20T09:09:11.642Z,99.99
2023-03-20T09:10:11.625Z,99.99
2023-03-20T09:11:11.617Z,99.99
2023-03-20T09:12:11.606Z,99.99
2023-03-20T09:13:26.113Z,99.99
2023-03-20T09:14:12.687Z,99.99
2023-03-20T09:15:11.574Z,99.99
2023-03-20T09:16:13.765Z,99.99
2023-03-20T09:17:11.548Z,99.99
2023-03-20T09:18:11.561Z,99.99
2023-03-20T09:19:11.525Z,99.99
2023-03-20T09:20:11.515Z,99.99
2023-03-20T09:21:11.500Z,99.99
2023-03-20T09:22:11.514Z,99.99
2023-03-20T09:23:11.479Z,99.99
2023-03-20T09:24:11.497Z,99.99
2023-03-20T09:25:11.466Z,99.99
2023-03-20T09:26:11.458Z,99.99
2023-03-20T09:27:11.438Z,99.99
2023-03-20T09:28:11.427Z,99.99
2023-03-20T09:29:11.435Z,99.99
2023-03-20T09:30:11.404Z,99.99
2023-03-20T09:31:11.424Z,99.99
2023-03-20T09:32:11.384Z,99.99
2023-03-20T09:33:11.544Z,99.99
2023-03-20T09:34:11.361Z,99.99
2023-03-20T09:35:11.345Z,99.99
2023-03-20T09:36:11.381Z,99.99
2023-03-20T09:37:11.324Z,99.99
2023-03-20T09:38:11.340Z,99.99
2023-03-20T09:39:11.302Z,99.99
2023-03-20T09:40:11.288Z,99.99
2023-03-20T09:41:11.281Z,99.99
2023-03-20T09:42:11.275Z,99.99
2023-03-20T09:43:11.260Z,99.99
2023-03-20T09:44:11.265Z,99.99
2023-03-20T09:45:11.267Z,99.99
2023-03-20T09:46:11.271Z,99.99
2023-03-20T09:47:19.829Z,99.99
2023-03-20T09:48:11.222Z,99.99
2023-03-20T09:49:11.190Z,99.99
2023-03-20T09:50:11.186Z,99.99
2023-03-20T09:51:11.168Z,99.99
2023-03-20T09:52:11.157Z,99.99
2023-03-20T09:53:11.149Z,99.99
2023-03-20T09:54:11.181Z,99.99
2023-03-20T09:55:11.162Z,99.99
2023-03-20T09:56:11.427Z,99.99
2023-03-20T09:57:11.109Z,99.99
2023-03-20T09:58:11.093Z,99.99
2023-03-20T09:59:11.077Z,99.99
2023-03-20T10:00:11.068Z,99.99
2023-03-20T10:01:11.054Z,99.99
2023-03-20T10:02:11.122Z,99.99
2023-03-20T10:03:11.037Z,99.99
2023-03-20T10:04:11.120Z,99.99
2023-03-20T10:05:11.009Z,99.99
2023-03-20T10:06:10.997Z,99.99
2023-03-20T10:07:10.988Z,99.99
2023-03-20T10:08:10.990Z,99.99
2023-03-20T10:09:10.985Z,99.99
2023-03-20T10:10:10.981Z,99.99
2023-03-20T10:11:10.950Z,99.99
2023-03-20T10:12:10.937Z,99.99
2023-03-20T10:13:10.920Z,99.99
2023-03-20T10:14:10.912Z,99.99
2023-03-20T10:15:10.900Z,99.99
2023-03-20T10:16:10.924Z,99.99
2023-03-20T10:17:10.882Z,99.99
2023-03-20T10:18:10.862Z,99.99
2023-03-20T10:19:10.859Z,99.99
2023-03-20T10:20:10.841Z,99.99
2023-03-20T10:21:10.881Z,99.99
2023-03-20T10:22:10.827Z,99.99
2023-03-20T10:23:10.805Z,99.99
2023-03-20T10:24:10.826Z,99.99
2023-03-20T10:25:10.815Z,99.99
2023-03-20T10:26:10.799Z,99.99
2023-03-20T10:27:10.763Z,99.99
2023-03-20T10:28:10.750Z,99.99
2023-03-20T10:29:10.739Z,99.99
2023-03-20T10:30:10.736Z,99.99
2023-03-20T10:31:10.757Z,99.99
2023-03-20T10:32:10.702Z,99.99
2023-03-20T10:33:10.914Z,99.99
2023-03-20T10:34:10.682Z,99.99
2023-03-20T10:35:11.197Z,99.99
2023-03-20T10:36:10.828Z,99.99
2023-03-20T10:37:10.653Z,99.99
2023-03-20T10:38:10.638Z,99.99
2023-03-20T10:39:10.629Z,99.99
2023-03-20T10:40:10.630Z,99.99
2023-03-20T10:41:10.609Z,99.99
2023-03-20T10:42:10.628Z,99.99
2023-03-20T10:43:10.586Z,99.99
2023-03-20T10:44:10.573Z,99.99
2023-03-20T10:45:10.563Z,99.99
2023-03-20T10:46:10.550Z,99.99
2023-03-20T10:47:10.739Z,99.99
2023-03-20T10:48:10.535Z,99.99
2023-03-20T10:49:10.521Z,99.99
2023-03-20T10:50:10.512Z,99.99
2023-03-20T10:51:10.511Z,99.99
2023-03-20T10:52:10.487Z,99.99
2023-03-20T10:53:10.475Z,99.99
2023-03-20T10:54:10.462Z,99.99
2023-03-20T10:55:10.454Z,99.99
2023-03-20T10:56:10.445Z,99.99
2023-03-20T10:57:10.433Z,99.99
2023-03-20T10:58:10.461Z,99.99
2023-03-20T10:59:10.461Z,99.99
2023-03-20T11:00:10.405Z,99.02
2023-03-20T11:01:10.435Z,99.99
2023-03-20T11:02:10.380Z,99.99
2023-03-20T11:03:10.365Z,97.20
2023-03-20T11:04:10.524Z,96.70
2023-03-20T11:05:10.348Z,94.22
2023-03-20T11:06:10.659Z,89.26
2023-03-20T11:07:11.063Z,89.17
2023-03-20T11:08:10.314Z,89.53
2023-03-20T11:09:10.309Z,90.70
2023-03-20T11:10:10.286Z,84.99
2023-03-20T11:11:10.284Z,81.49
2023-03-20T11:12:10.265Z,84.36
2023-03-20T11:13:10.266Z,87.24
2023-03-20T11:14:10.266Z,92.31
2023-03-20T11:15:10.231Z,87.79
2023-03-20T11:16:10.229Z,89.50
2023-03-20T11:17:10.212Z,88.52
2023-03-20T11:18:10.204Z,94.15
2023-03-20T11:19:10.190Z,94.15
2023-03-20T11:20:10.177Z,97.40
2023-03-20T11:21:10.167Z,99.88
2023-03-20T11:22:10.157Z,99.48
2023-03-20T11:23:10.173Z,97.80
2023-03-20T11:24:11.683Z,96.34
2023-03-20T11:25:10.149Z,92.07
2023-03-20T11:26:10.132Z,94.41
2023-03-20T11:27:10.122Z,97.76
2023-03-20T11:28:10.086Z,94.77
2023-03-20T11:29:10.078Z,95.07
2023-03-20T11:30:10.086Z,91.73
2023-03-20T11:31:10.054Z,91.73
2023-03-20T11:32:10.099Z,96.30
2023-03-20T11:33:10.062Z,87.77
2023-03-20T11:34:10.025Z,89.59
2023-03-20T11:35:10.012Z,91.42
2023-03-20T11:36:10.033Z,91.63
2023-03-20T11:37:11.045Z,91.02
2023-03-20T11:38:09.972Z,88.64
2023-03-20T11:39:09.960Z,88.23
2023-03-20T11:40:09.956Z,91.74
2023-03-20T11:41:09.939Z,91.39
2023-03-20T11:42:09.924Z,86.29
2023-03-20T11:43:09.917Z,85.42
2023-03-20T11:44:09.904Z,85.21
2023-03-20T11:45:09.898Z,85.78
2023-03-20T11:46:09.936Z,83.65
2023-03-20T11:47:09.901Z,83.35
2023-03-20T11:48:09.879Z,85.58
2023-03-20T11:49:09.858Z,83.96
2023-03-20T11:50:09.837Z,83.04
2023-03-20T11:51:09.823Z,83.90
2023-03-20T11:52:09.812Z,85.48
2023-03-20T11:53:09.805Z,83.15
2023-03-20T11:54:09.840Z,82.40
2023-03-20T11:55:09.789Z,81.29
2023-03-20T11:56:09.769Z,83.68
2023-03-20T11:57:09.761Z,83.13
2023-03-20T11:58:09.750Z,79.53
2023-03-20T11:59:09.825Z,79.63
2023-03-20T12:00:09.737Z,81.29
2023-03-20T12:01:09.716Z,80.78
2023-03-20T12:02:09.797Z,82.20
2023-03-20T12:03:09.726Z,81.12
2023-03-20T12:04:09.686Z,81.32
2023-03-20T12:05:11.318Z,81.73
2023-03-20T12:06:09.669Z,86.85
2023-03-20T12:07:09.660Z,82.70
2023-03-20T12:08:09.650Z,83.11
2023-03-20T12:09:09.632Z,83.17
2023-03-20T12:10:09.619Z,81.45
2023-03-20T12:11:09.643Z,83.78
2023-03-20T12:12:09.598Z,80.18
2023-03-20T12:13:09.587Z,79.94
2023-03-20T12:14:09.573Z,81.97
2023-03-20T12:15:09.565Z,86.53
2023-03-20T12:16:09.597Z,85.42
2023-03-20T12:17:09.544Z,90.22
2023-03-20T12:18:09.557Z,85.36
2023-03-20T12:19:09.520Z,87.52
2023-03-20T12:20:09.514Z,88.58
2023-03-20T12:21:09.495Z,87.97
2023-03-20T12:22:09.484Z,93.60
2023-03-20T12:23:09.473Z,93.80
2023-03-20T12:24:09.475Z,91.16
2023-03-20T12:25:09.455Z,92.28
2023-03-20T12:26:09.441Z,91.30
2023-03-20T12:27:09.430Z,88.87
2023-03-20T12:28:09.419Z,90.49
2023-03-20T12:29:09.410Z,94.96
2023-03-20T12:30:09.396Z,92.32
2023-03-20T12:31:09.431Z,89.48
2023-03-20T12:32:09.377Z,92.83
2023-03-20T12:33:09.402Z,90.74
2023-03-20T12:34:09.374Z,93.38
2023-03-20T12:35:09.367Z,93.89
2023-03-20T12:36:09.387Z,95.82
2023-03-20T12:37:09.322Z,94.80
2023-03-20T12:38:09.305Z,96.38
2023-03-20T12:39:09.294Z,92.83
2023-03-20T12:40:09.280Z,93.13
2023-03-20T12:41:09.270Z,92.77
2023-03-20T12:42:09.253Z,93.89
2023-03-20T12:43:09.245Z,94.09
2023-03-20T12:44:09.236Z,94.60
2023-03-20T12:45:09.224Z,94.60
2023-03-20T12:46:09.227Z,94.50
2023-03-20T12:47:09.231Z,95.10
2023-03-20T12:48:09.195Z,96.02
2023-03-20T12:49:09.175Z,99.17
2023-03-20T12:51:09.151Z,99.99
2023-03-20T12:52:09.136Z,96.02
2023-03-20T12:53:09.137Z,96.53
2023-03-20T12:54:09.131Z,96.83
2023-03-20T12:55:09.111Z,95.25
2023-03-20T12:56:09.095Z,92.61